Time;durP1;ratioP1;P1;durP2;ratioP2;P2;SDS_P1;SDS_P2;PMS_P1;PMS_P2;Temp;Humidity;BMP_temperature;BMP_pressure;BME280_temperature;BME280_humidity;BME280_pressure;Samples;Min_cycle;Max_cycle;Signal;HPM_P1;HPM_P2
2020/12/25 00:01:40;;;;;;;4.1;2.2;;;;;;;;;;;;;
2020/12/25 00:04:05;;;;;;;4.8;3.1;;;;;;;;;;;;;
2020/12/25 00:06:31;;;;;;;5.4;2.7;;;;;;;;;;;;;
2020/12/25 00:08:56;;;;;;;6.7;3.4;;;;;;;;;;;;;
2020/12/25 00:11:21;;;;;;;4.7;3;;;;;;;;;;;;;
2020/12/25 00:13:47;;;;;;;5.7;3.2;;;;;;;;;;;;;
2020/12/25 00:16:12;;;;;;;5.2;3.2;;;;;;;;;;;;;
2020/12/25 00:18:37;;;;;;;3.9;2.7;;;;;;;;;;;;;
2020/12/25 00:21:03;;;;;;;4.1;2.4;;;;;;;;;;;;;
2020/12/25 00:23:28;;;;;;;5.1;2.5;;;;;;;;;;;;;
2020/12/25 00:25:53;;;;;;;4.3;2.4;;;;;;;;;;;;;
2020/12/25 00:28:19;;;;;;;3;2.2;;;;;;;;;;;;;
2020/12/25 00:30:44;;;;;;;4.4;2.2;;;;;;;;;;;;;
2020/12/25 00:33:10;;;;;;;3.5;2;;;;;;;;;;;;;
2020/12/25 00:35:35;;;;;;;2.9;2.1;;;;;;;;;;;;;
2020/12/25 00:38:01;;;;;;;2.8;1.9;;;;;;;;;;;;;
2020/12/25 00:40:26;;;;;;;2.7;1.9;;;;;;;;;;;;;
2020/12/25 00:42:52;;;;;;;2.5;1.8;;;;;;;;;;;;;
2020/12/25 00:45:18;;;;;;;2.7;1.8;;;;;;;;;;;;;
2020/12/25 00:47:42;;;;;;;2.6;2;;;;;;;;;;;;;
2020/12/25 00:50:07;;;;;;;4.1;2;;;;;;;;;;;;;
2020/12/25 00:52:33;;;;;;;3.6;2;;;;;;;;;;;;;
2020/12/25 00:54:58;;;;;;;4.3;2.1;;;;;;;;;;;;;
2020/12/25 00:57:24;;;;;;;5.9;2.2;;;;;;;;;;;;;
2020/12/25 00:59:50;;;;;;;5.6;2;;;;;;;;;;;;;
2020/12/25 01:02:17;;;;;;;9.9;2.2;;;;;;;;;;;;;
2020/12/25 01:04:42;;;;;;;5.1;2.5;;;;;;;;;;;;;
2020/12/25 01:07:09;;;;;;;4.5;2.1;;;;;;;;;;;;;
2020/12/25 01:09:34;;;;;;;5.8;2.4;;;;;;;;;;;;;
2020/12/25 01:12:00;;;;;;;4.1;2.3;;;;;;;;;;;;;
2020/12/25 01:14:24;;;;;;;4.9;2.9;;;;;;;;;;;;;
2020/12/25 01:16:51;;;;;;;17.9;10.5;;;;;;;;;;;;;
2020/12/25 01:19:15;;;;;;;6;4.2;;;;;;;;;;;;;
2020/12/25 01:21:41;;;;;;;5.4;3.1;;;;;;;;;;;;;
2020/12/25 01:24:06;;;;;;;7;4.2;;;;;;;;;;;;;
2020/12/25 01:26:33;;;;;;;3.3;1.9;;;;;;;;;;;;;
2020/12/25 01:28:57;;;;;;;1.7;1.2;;;;;;;;;;;;;
2020/12/25 01:31:23;;;;;;;3.3;1.6;;;;;;;;;;;;;
2020/12/25 01:33:48;;;;;;;4.8;2.3;;;;;;;;;;;;;
2020/12/25 01:36:14;;;;;;;3;2;;;;;;;;;;;;;
2020/12/25 01:38:39;;;;;;;4.4;2.1;;;;;;;;;;;;;
2020/12/25 01:41:06;;;;;;;3.8;2.6;;;;;;;;;;;;;
2020/12/25 01:43:31;;;;;;;2.6;1.8;;;;;;;;;;;;;
2020/12/25 01:45:57;;;;;;;4.2;2.6;;;;;;;;;;;;;
2020/12/25 01:48:22;;;;;;;6;4.5;;;;;;;;;;;;;
2020/12/25 01:50:51;;;;;;;10.2;6;;;;;;;;;;;;;
2020/12/25 01:53:17;;;;;;;6.4;2.8;;;;;;;;;;;;;
2020/12/25 01:55:40;;;;;;;4.9;2.7;;;;;;;;;;;;;
2020/12/25 01:58:04;;;;;;;3;2.1;;;;;;;;;;;;;
2020/12/25 02:00:30;;;;;;;4.4;2.4;;;;;;;;;;;;;
2020/12/25 02:02:55;;;;;;;3.2;2.1;;;;;;;;;;;;;
2020/12/25 02:05:20;;;;;;;2.1;1.5;;;;;;;;;;;;;
2020/12/25 02:07:45;;;;;;;2.1;1.4;;;;;;;;;;;;;
2020/12/25 02:10:10;;;;;;;3.6;2.2;;;;;;;;;;;;;
2020/12/25 02:12:36;;;;;;;3.2;2.1;;;;;;;;;;;;;
2020/12/25 02:15:01;;;;;;;1.4;1.2;;;;;;;;;;;;;
2020/12/25 02:17:28;;;;;;;0.9;0.9;;;;;;;;;;;;;
2020/12/25 02:19:53;;;;;;;0.9;0.6;;;;;;;;;;;;;
2020/12/25 02:22:18;;;;;;;1;0.7;;;;;;;;;;;;;
2020/12/25 02:24:43;;;;;;;1.7;0.7;;;;;;;;;;;;;
2020/12/25 02:27:08;;;;;;;0.7;0.4;;;;;;;;;;;;;
2020/12/25 02:29:34;;;;;;;0.4;0.4;;;;;;;;;;;;;
2020/12/25 02:31:59;;;;;;;0.3;0.2;;;;;;;;;;;;;
2020/12/25 02:34:24;;;;;;;0.1;0.1;;;;;;;;;;;;;
2020/12/25 02:36:50;;;;;;;0.2;0.2;;;;;;;;;;;;;
2020/12/25 02:39:15;;;;;;;0.2;0.1;;;;;;;;;;;;;
2020/12/25 02:41:40;;;;;;;0.1;0.1;;;;;;;;;;;;;
2020/12/25 02:44:05;;;;;;;0.2;0.2;;;;;;;;;;;;;
2020/12/25 02:46:31;;;;;;;0.2;0.2;;;;;;;;;;;;;
2020/12/25 02:48:56;;;;;;;0.2;0.2;;;;;;;;;;;;;
2020/12/25 02:51:23;;;;;;;0.1;0.1;;;;;;;;;;;;;
2020/12/25 02:53:49;;;;;;;0.1;0.1;;;;;;;;;;;;;
2020/12/25 02:56:14;;;;;;;0.1;0.1;;;;;;;;;;;;;
2020/12/25 02:58:39;;;;;;;0.2;0.2;;;;;;;;;;;;;
2020/12/25 03:01:04;;;;;;;0.2;0.2;;;;;;;;;;;;;
2020/12/25 03:03:29;;;;;;;0.1;0.1;;;;;;;;;;;;;
2020/12/25 03:05:55;;;;;;;0.6;0.4;;;;;;;;;;;;;
2020/12/25 03:08:21;;;;;;;0.2;0.2;;;;;;;;;;;;;
2020/12/25 03:10:46;;;;;;;0.2;0.2;;;;;;;;;;;;;
2020/12/25 03:13:11;;;;;;;0.2;0.2;;;;;;;;;;;;;
2020/12/25 03:15:37;;;;;;;0.1;0.1;;;;;;;;;;;;;
2020/12/25 03:18:03;;;;;;;0.1;0.1;;;;;;;;;;;;;
2020/12/25 03:20:28;;;;;;;0.2;0.2;;;;;;;;;;;;;
2020/12/25 03:22:53;;;;;;;0.1;0.1;;;;;;;;;;;;;
2020/12/25 03:25:19;;;;;;;0;0;;;;;;;;;;;;;
2020/12/25 03:27:44;;;;;;;0.3;0.2;;;;;;;;;;;;;
2020/12/25 03:30:11;;;;;;;0.1;0.1;;;;;;;;;;;;;
2020/12/25 03:32:36;;;;;;;0.1;0.1;;;;;;;;;;;;;
2020/12/25 03:35:03;;;;;;;0.1;0.1;;;;;;;;;;;;;
2020/12/25 03:37:28;;;;;;;0.1;0.1;;;;;;;;;;;;;
2020/12/25 03:39:53;;;;;;;0.1;0.1;;;;;;;;;;;;;
2020/12/25 03:42:18;;;;;;;0.1;0.1;;;;;;;;;;;;;
2020/12/25 03:44:43;;;;;;;0;0;;;;;;;;;;;;;
2020/12/25 03:47:08;;;;;;;0.1;0.1;;;;;;;;;;;;;
2020/12/25 03:49:34;;;;;;;0;0;;;;;;;;;;;;;
2020/12/25 03:52:00;;;;;;;0;0;;;;;;;;;;;;;
2020/12/25 03:54:25;;;;;;;0;0;;;;;;;;;;;;;
2020/12/25 03:56:51;;;;;;;0.1;0.1;;;;;;;;;;;;;
2020/12/25 03:59:16;;;;;;;0;0;;;;;;;;;;;;;
2020/12/25 04:02:31;;;;;;;0;0;;;;;;;3.8;77.7002;933.757;;;;
2020/12/25 04:04:56;;;;;;;0.1;0.1;;;;;;;3.82;76.39941;933.8752;;;;
2020/12/25 04:07:24;;;;;;;0.1;0.1;;;;;;;3.67;77.51953;933.9086;;;;
2020/12/25 04:09:49;;;;;;;0;0;;;;;;;3.94;79.16406;933.9084;;;;
2020/12/25 04:12:16;;;;;;;0.1;0.1;;;;;;;4.09;79.32715;933.997;;;;
2020/12/25 04:14:41;;;;;;;0.1;0.1;;;;;;;3.85;77.31641;934.024;;;;
2020/12/25 04:17:08;;;;;;;0.1;0.1;;;;;;;3.93;78.69141;933.8847;;;;
2020/12/25 04:19:33;;;;;;;0;0;;;;;;;3.93;77.35352;934.024;;;;
2020/12/25 04:22:00;;;;;;;0.1;0.1;;;;;;;3.72;75.10254;934.0605;;;;
2020/12/25 04:24:25;;;;;;;0.1;0.1;;;;;;;3.89;76.43457;934.1024;;;;
2020/12/25 04:26:51;;;;;;;0.1;0.1;;;;;;;3.94;75.53418;934.1921;;;;
2020/12/25 04:29:16;;;;;;;0.1;0.1;;;;;;;3.72;76.03516;934.2053;;;;
2020/12/25 04:31:44;;;;;;;0.1;0.1;;;;;;;3.69;77.66699;934.2428;;;;
2020/12/25 04:34:09;;;;;;;0.1;0.1;;;;;;;3.65;78.21289;934.3269;;;;
2020/12/25 04:36:34;;;;;;;0;0;;;;;;;3.69;77.24023;934.2288;;;;
2020/12/25 04:39:01;;;;;;;0.1;0.1;;;;;;;3.41;79.13379;934.4037;;;;
2020/12/25 04:41:27;;;;;;;0;0;;;;;;;3.51;79.24219;934.4295;;;;
2020/12/25 04:43:52;;;;;;;0.1;0.1;;;;;;;3.73;79.19434;934.4646;;;;
2020/12/25 04:46:17;;;;;;;0;0;;;;;;;3.71;78.70605;934.5616;;;;
2020/12/25 04:48:42;;;;;;;0;0;;;;;;;3.58;77.08789;934.5103;;;;
2020/12/25 04:51:10;;;;;;;0;0;;;;;;;3.69;77.21973;934.5854;;;;
2020/12/25 04:53:33;;;;;;;0;0;;;;;;;3.73;77.74512;934.6016;;;;
2020/12/25 04:55:58;;;;;;;0;0;;;;;;;3.79;77.62109;934.6641;;;;
2020/12/25 04:58:23;;;;;;;0.1;0.1;;;;;;;3.59;77.48047;934.6074;;;;
2020/12/25 05:00:48;;;;;;;0.1;0.1;;;;;;;3.59;76.61719;934.7256;;;;
2020/12/25 05:03:13;;;;;;;0;0;;;;;;;3.5;78.4209;934.8205;;;;
2020/12/25 05:05:41;;;;;;;0.1;0.1;;;;;;;3.65;78.48242;934.8156;;;;
2020/12/25 05:08:08;;;;;;;0.1;0.1;;;;;;;3.57;78.41016;934.7642;;;;
2020/12/25 05:10:36;;;;;;;0.1;0.1;;;;;;;3.56;79.09473;934.831;;;;
2020/12/25 05:13:01;;;;;;;0.1;0.1;;;;;;;3.67;79.31738;934.8794;;;;
2020/12/25 05:15:26;;;;;;;0.1;0.1;;;;;;;3.74;79.61035;934.9088;;;;
2020/12/25 05:17:51;;;;;;;0.2;0.2;;;;;;;3.68;79.52148;934.9317;;;;
2020/12/25 05:20:16;;;;;;;0.1;0.1;;;;;;;3.52;79.11035;934.9164;;;;
2020/12/25 05:22:43;;;;;;;0.1;0.1;;;;;;;3.62;79.72461;934.9811;;;;
2020/12/25 05:25:12;;;;;;;0;0;;;;;;;3.61;79.99121;935.002;;;;
2020/12/25 05:27:37;;;;;;;0.1;0.1;;;;;;;3.6;80.25879;934.9933;;;;
2020/12/25 05:30:02;;;;;;;0;0;;;;;;;3.65;80.17969;934.8986;;;;
2020/12/25 05:32:27;;;;;;;0.1;0.1;;;;;;;3.53;80.99805;935.0305;;;;
2020/12/25 05:34:53;;;;;;;0;0;;;;;;;3.53;81.2334;935.1055;;;;
2020/12/25 05:37:18;;;;;;;0.7;0.3;;;;;;;3.57;81.64648;935.1863;;;;
2020/12/25 05:39:43;;;;;;;0;0;;;;;;;3.22;83.03809;935.1719;;;;
2020/12/25 05:42:08;;;;;;;0.1;0.1;;;;;;;2.86;85.44629;935.1362;;;;
2020/12/25 05:44:36;;;;;;;0.1;0.1;;;;;;;2.68;86.15039;935.2863;;;;
2020/12/25 05:46:58;;;;;;;0.1;0.1;;;;;;;3.09;85.01074;935.2092;;;;
2020/12/25 05:49:23;;;;;;;0.1;0.1;;;;;;;2.93;85.09082;935.2391;;;;
2020/12/25 05:51:49;;;;;;;0.5;0.5;;;;;;;2.71;86.26953;935.2827;;;;
2020/12/25 05:54:14;;;;;;;0.1;0.1;;;;;;;2.62;86.22852;935.326;;;;
2020/12/25 05:56:39;;;;;;;0.1;0.1;;;;;;;2.84;85.75684;935.3987;;;;
2020/12/25 05:59:04;;;;;;;0.2;0.2;;;;;;;2.79;86.27246;935.3819;;;;
2020/12/25 06:01:32;;;;;;;0;0;;;;;;;2.94;85.96777;935.41;;;;
2020/12/25 06:03:57;;;;;;;0.1;0.1;;;;;;;3.13;85.21875;935.4432;;;;
2020/12/25 06:06:24;;;;;;;0;0;;;;;;;3.34;84.52051;935.4897;;;;
2020/12/25 06:08:48;;;;;;;0.1;0.1;;;;;;;3.31;84.71777;935.4188;;;;
2020/12/25 06:11:13;;;;;;;0;0;;;;;;;3.27;83.375;935.4387;;;;
2020/12/25 06:13:39;;;;;;;0.1;0.1;;;;;;;;;;;;;
2020/12/25 06:16:05;;;;;;;0;0;;;;;;;;;;;;;
2020/12/25 06:18:30;;;;;;;0.1;0.1;;;;;;;;;;;;;
2020/12/25 06:20:55;;;;;;;0.4;0.4;;;;;;;;;;;;;
2020/12/25 06:23:21;;;;;;;0.7;0.6;;;;;;;;;;;;;
2020/12/25 06:25:46;;;;;;;0.1;0.1;;;;;;;;;;;;;
2020/12/25 06:28:11;;;;;;;0.3;0.3;;;;;;;;;;;;;
2020/12/25 06:30:36;;;;;;;0.4;0.2;;;;;;;;;;;;;
2020/12/25 06:33:01;;;;;;;0.2;0.2;;;;;;;;;;;;;
2020/12/25 06:35:26;;;;;;;0.3;0.3;;;;;;;;;;;;;
2020/12/25 06:37:51;;;;;;;0.1;0.1;;;;;;;;;;;;;
2020/12/25 06:40:17;;;;;;;0.1;0.1;;;;;;;;;;;;;
2020/12/25 06:42:42;;;;;;;0.2;0.2;;;;;;;;;;;;;
2020/12/25 06:45:07;;;;;;;0.2;0.2;;;;;;;;;;;;;
2020/12/25 06:47:32;;;;;;;0.2;0.2;;;;;;;;;;;;;
2020/12/25 06:49:57;;;;;;;0.2;0.2;;;;;;;;;;;;;
2020/12/25 06:52:23;;;;;;;0.1;0.1;;;;;;;;;;;;;
2020/12/25 06:54:48;;;;;;;0.1;0.1;;;;;;;;;;;;;
2020/12/25 06:57:13;;;;;;;0.1;0.1;;;;;;;;;;;;;
2020/12/25 06:59:39;;;;;;;0.1;0.1;;;;;;;;;;;;;
2020/12/25 07:02:04;;;;;;;0.1;0.1;;;;;;;;;;;;;
2020/12/25 07:04:29;;;;;;;0.2;0.2;;;;;;;;;;;;;
2020/12/25 07:06:54;;;;;;;0.1;0.1;;;;;;;;;;;;;
2020/12/25 07:09:20;;;;;;;0.1;0.1;;;;;;;;;;;;;
2020/12/25 07:11:44;;;;;;;0.1;0.1;;;;;;;;;;;;;
2020/12/25 07:14:10;;;;;;;0.1;0.1;;;;;;;;;;;;;
2020/12/25 07:16:35;;;;;;;0.2;0.2;;;;;;;;;;;;;
2020/12/25 07:19:00;;;;;;;0.1;0.1;;;;;;;;;;;;;
2020/12/25 07:21:25;;;;;;;0.8;0.2;;;;;;;;;;;;;
2020/12/25 07:23:50;;;;;;;1.5;0.2;;;;;;;;;;;;;
2020/12/25 07:26:17;;;;;;;0.1;0.1;;;;;;;;;;;;;
2020/12/25 07:28:41;;;;;;;0.1;0.1;;;;;;;;;;;;;
2020/12/25 07:31:06;;;;;;;0.1;0.1;;;;;;;;;;;;;
2020/12/25 07:33:31;;;;;;;0.2;0.2;;;;;;;;;;;;;
2020/12/25 07:35:57;;;;;;;0.5;0.4;;;;;;;;;;;;;
2020/12/25 07:38:22;;;;;;;0.2;0.2;;;;;;;;;;;;;
2020/12/25 07:40:48;;;;;;;0.4;0.4;;;;;;;;;;;;;
2020/12/25 07:43:13;;;;;;;10.9;4.5;;;;;;;;;;;;;
2020/12/25 07:45:38;;;;;;;0.6;0.6;;;;;;;;;;;;;
2020/12/25 07:48:03;;;;;;;0.8;0.5;;;;;;;;;;;;;
2020/12/25 07:50:29;;;;;;;0.4;0.4;;;;;;;;;;;;;
2020/12/25 07:52:54;;;;;;;0.8;0.5;;;;;;;;;;;;;
2020/12/25 07:55:19;;;;;;;0.1;0.1;;;;;;;;;;;;;
2020/12/25 07:57:44;;;;;;;1;0.7;;;;;;;;;;;;;
2020/12/25 08:00:09;;;;;;;1.7;1.4;;;;;;;;;;;;;
2020/12/25 08:02:35;;;;;;;9.8;5.3;;;;;;;;;;;;;
2020/12/25 08:05:00;;;;;;;0.4;0.4;;;;;;;;;;;;;
2020/12/25 08:07:25;;;;;;;0.2;0.2;;;;;;;;;;;;;
2020/12/25 08:09:50;;;;;;;7.8;5.1;;;;;;;;;;;;;
2020/12/25 08:12:15;;;;;;;5.3;2.4;;;;;;;;;;;;;
2020/12/25 08:14:42;;;;;;;1.1;0.9;;;;;;;;;;;;;
2020/12/25 08:17:06;;;;;;;1.8;1.6;;;;;;;;;;;;;
2020/12/25 08:19:31;;;;;;;2.7;0.8;;;;;;;;;;;;;
2020/12/25 08:21:56;;;;;;;1.1;0.9;;;;;;;;;;;;;
2020/12/25 08:24:22;;;;;;;2.1;0.5;;;;;;;;;;;;;
2020/12/25 08:26:47;;;;;;;2.3;1.8;;;;;;;;;;;;;
2020/12/25 08:29:12;;;;;;;4.2;2.6;;;;;;;;;;;;;
2020/12/25 08:31:37;;;;;;;4.8;3.3;;;;;;;;;;;;;
2020/12/25 08:34:02;;;;;;;1.2;1;;;;;;;;;;;;;
2020/12/25 08:36:28;;;;;;;1.3;1.1;;;;;;;;;;;;;
2020/12/25 08:38:53;;;;;;;4.2;1.5;;;;;;;;;;;;;
2020/12/25 08:41:19;;;;;;;1.9;1.4;;;;;;;;;;;;;
2020/12/25 08:43:44;;;;;;;1;0.9;;;;;;;;;;;;;
2020/12/25 08:46:09;;;;;;;2.1;1.5;;;;;;;;;;;;;
2020/12/25 08:48:34;;;;;;;4;2.2;;;;;;;;;;;;;
2020/12/25 08:51:00;;;;;;;3;1.3;;;;;;;;;;;;;
2020/12/25 08:53:25;;;;;;;1.4;0.9;;;;;;;;;;;;;
2020/12/25 08:55:50;;;;;;;1.5;0.7;;;;;;;;;;;;;
2020/12/25 08:58:15;;;;;;;0.3;0.3;;;;;;;;;;;;;
2020/12/25 09:00:40;;;;;;;3.3;1.1;;;;;;;;;;;;;
2020/12/25 09:03:05;;;;;;;0.8;0.8;;;;;;;;;;;;;
2020/12/25 09:05:30;;;;;;;3.2;2.3;;;;;;;;;;;;;
2020/12/25 09:07:56;;;;;;;2.5;1.5;;;;;;;;;;;;;
2020/12/25 09:10:21;;;;;;;0.7;0.6;;;;;;;;;;;;;
2020/12/25 09:12:46;;;;;;;3.1;0.9;;;;;;;;;;;;;
2020/12/25 09:15:11;;;;;;;1.3;1;;;;;;;;;;;;;
2020/12/25 09:17:36;;;;;;;7.5;2.6;;;;;;;;;;;;;
2020/12/25 09:20:01;;;;;;;1.5;1;;;;;;;;;;;;;
2020/12/25 09:22:27;;;;;;;4.6;1.6;;;;;;;;;;;;;
2020/12/25 09:24:52;;;;;;;2.5;0.7;;;;;;;;;;;;;
2020/12/25 09:27:17;;;;;;;0.4;0.4;;;;;;;;;;;;;
2020/12/25 09:29:42;;;;;;;1.5;0.9;;;;;;;;;;;;;
2020/12/25 09:32:08;;;;;;;3.7;1.7;;;;;;;;;;;;;
2020/12/25 09:34:33;;;;;;;1.6;1.2;;;;;;;;;;;;;
2020/12/25 09:36:58;;;;;;;3.8;1.7;;;;;;;;;;;;;
2020/12/25 09:39:23;;;;;;;1.2;0.9;;;;;;;;;;;;;
2020/12/25 09:41:48;;;;;;;3;1.2;;;;;;;;;;;;;
2020/12/25 09:44:14;;;;;;;4.5;1.3;;;;;;;;;;;;;
2020/12/25 09:46:39;;;;;;;2.3;0.9;;;;;;;;;;;;;
2020/12/25 09:49:04;;;;;;;1.4;0.9;;;;;;;;;;;;;
2020/12/25 09:51:29;;;;;;;1;0.8;;;;;;;;;;;;;
2020/12/25 09:53:54;;;;;;;1;0.8;;;;;;;;;;;;;
2020/12/25 09:56:19;;;;;;;1.2;0.8;;;;;;;;;;;;;
2020/12/25 09:58:45;;;;;;;1.1;0.8;;;;;;;;;;;;;
2020/12/25 10:01:10;;;;;;;0.5;0.4;;;;;;;;;;;;;
2020/12/25 10:03:36;;;;;;;0.8;0.8;;;;;;;;;;;;;
2020/12/25 10:06:01;;;;;;;0.6;0.6;;;;;;;;;;;;;
2020/12/25 10:08:26;;;;;;;0.8;0.6;;;;;;;;;;;;;
2020/12/25 10:10:51;;;;;;;0.9;0.7;;;;;;;;;;;;;
2020/12/25 10:13:16;;;;;;;1.2;0.9;;;;;;;;;;;;;
2020/12/25 10:15:41;;;;;;;0.4;0.4;;;;;;;;;;;;;
2020/12/25 10:18:07;;;;;;;1.4;0.8;;;;;;;;;;;;;
2020/12/25 10:20:31;;;;;;;0.4;0.4;;;;;;;;;;;;;
2020/12/25 10:22:57;;;;;;;0.5;0.5;;;;;;;;;;;;;
2020/12/25 10:25:24;;;;;;;1.3;0.4;;;;;;;;;;;;;
2020/12/25 10:27:48;;;;;;;0.8;0.4;;;;;;;;;;;;;
2020/12/25 10:30:13;;;;;;;0.9;0.7;;;;;;;;;;;;;
2020/12/25 10:32:38;;;;;;;0.5;0.5;;;;;;;;;;;;;
2020/12/25 10:35:03;;;;;;;0.9;0.7;;;;;;;;;;;;;
2020/12/25 10:37:28;;;;;;;0.5;0.5;;;;;;;;;;;;;
2020/12/25 10:39:56;;;;;;;0.6;0.6;;;;;;;;;;;;;
2020/12/25 10:42:20;;;;;;;0.9;0.6;;;;;;;;;;;;;
2020/12/25 10:44:46;;;;;;;0.5;0.5;;;;;;;;;;;;;
2020/12/25 10:47:12;;;;;;;0.8;0.6;;;;;;;;;;;;;
2020/12/25 10:49:36;;;;;;;1.5;0.8;;;;;;;;;;;;;
2020/12/25 10:52:01;;;;;;;0.8;0.7;;;;;;;;;;;;;
2020/12/25 10:54:26;;;;;;;1.1;0.8;;;;;;;;;;;;;
2020/12/25 10:56:51;;;;;;;0.5;0.5;;;;;;;;;;;;;
2020/12/25 10:59:17;;;;;;;8.3;1.3;;;;;;;;;;;;;
2020/12/25 11:01:46;;;;;;;2.3;0.8;;;;;;;;;;;;;
2020/12/25 11:04:07;;;;;;;0.7;0.7;;;;;;;;;;;;;
2020/12/25 11:06:32;;;;;;;0.5;0.5;;;;;;;;;;;;;
2020/12/25 11:08:59;;;;;;;0.8;0.6;;;;;;;;;;;;;
2020/12/25 11:11:23;;;;;;;0.8;0.5;;;;;;;;;;;;;
2020/12/25 11:13:48;;;;;;;0.9;0.5;;;;;;;;;;;;;
2020/12/25 11:16:14;;;;;;;0.5;0.5;;;;;;;;;;;;;
2020/12/25 11:18:39;;;;;;;0.5;0.5;;;;;;;;;;;;;
2020/12/25 11:21:05;;;;;;;0.8;0.7;;;;;;;;;;;;;
2020/12/25 11:23:30;;;;;;;1.2;0.7;;;;;;;;;;;;;
2020/12/25 11:25:56;;;;;;;1.1;0.9;;;;;;;;;;;;;
2020/12/25 11:28:21;;;;;;;0.9;0.6;;;;;;;;;;;;;
2020/12/25 11:30:47;;;;;;;1.1;0.7;;;;;;;;;;;;;
2020/12/25 11:33:13;;;;;;;1.5;0.9;;;;;;;;;;;;;
2020/12/25 11:35:40;;;;;;;0.7;0.7;;;;;;;;;;;;;
2020/12/25 11:38:04;;;;;;;0.6;0.6;;;;;;;;;;;;;
2020/12/25 11:40:29;;;;;;;0.5;0.5;;;;;;;;;;;;;
2020/12/25 11:42:56;;;;;;;1.3;0.9;;;;;;;;;;;;;
2020/12/25 11:45:20;;;;;;;1.3;1;;;;;;;;;;;;;
2020/12/25 11:47:45;;;;;;;1;0.7;;;;;;;;;;;;;
2020/12/25 11:50:10;;;;;;;0.9;0.8;;;;;;;;;;;;;
2020/12/25 11:52:35;;;;;;;1.3;0.7;;;;;;;;;;;;;
2020/12/25 11:55:00;;;;;;;0.6;0.5;;;;;;;;;;;;;
2020/12/25 11:57:26;;;;;;;0.4;0.4;;;;;;;;;;;;;
2020/12/25 11:59:51;;;;;;;0.5;0.5;;;;;;;;;;;;;
2020/12/25 12:02:17;;;;;;;0.6;0.5;;;;;;;;;;;;;
2020/12/25 12:04:42;;;;;;;1;0.7;;;;;;;;;;;;;
2020/12/25 12:07:07;;;;;;;0.8;0.6;;;;;;;;;;;;;
2020/12/25 12:09:32;;;;;;;1.1;0.5;;;;;;;;;;;;;
2020/12/25 12:11:57;;;;;;;0.9;0.6;;;;;;;;;;;;;
2020/12/25 12:14:22;;;;;;;0.8;0.7;;;;;;;;;;;;;
2020/12/25 12:16:48;;;;;;;1.2;0.6;;;;;;;;;;;;;
2020/12/25 12:19:13;;;;;;;1.1;0.8;;;;;;;;;;;;;
2020/12/25 12:21:38;;;;;;;1;0.9;;;;;;;;;;;;;
2020/12/25 12:24:03;;;;;;;0.7;0.6;;;;;;;;;;;;;
2020/12/25 12:26:28;;;;;;;0.3;0.3;;;;;;;;;;;;;
2020/12/25 12:28:53;;;;;;;2.9;0.9;;;;;;;;;;;;;
2020/12/25 12:31:19;;;;;;;0.9;0.7;;;;;;;;;;;;;
2020/12/25 12:33:44;;;;;;;1.4;0.3;;;;;;;;;;;;;
2020/12/25 12:36:10;;;;;;;1.3;0.8;;;;;;;;;;;;;
2020/12/25 12:38:35;;;;;;;0.8;0.8;;;;;;;;;;;;;
2020/12/25 12:41:01;;;;;;;0.2;0.2;;;;;;;;;;;;;
2020/12/25 12:43:26;;;;;;;0.8;0.6;;;;;;;;;;;;;
2020/12/25 12:45:51;;;;;;;1;0.9;;;;;;;;;;;;;
2020/12/25 12:48:16;;;;;;;2.3;0.7;;;;;;;;;;;;;
2020/12/25 12:50:41;;;;;;;1.6;0.8;;;;;;;;;;;;;
2020/12/25 12:53:07;;;;;;;0.9;0.8;;;;;;;;;;;;;
2020/12/25 12:55:32;;;;;;;0.5;0.4;;;;;;;;;;;;;
2020/12/25 12:57:57;;;;;;;0.3;0.3;;;;;;;;;;;;;
2020/12/25 13:00:22;;;;;;;0.6;0.6;;;;;;;;;;;;;
2020/12/25 13:02:48;;;;;;;0.7;0.6;;;;;;;;;;;;;
2020/12/25 13:05:13;;;;;;;0.7;0.7;;;;;;;;;;;;;
2020/12/25 13:07:39;;;;;;;0.7;0.7;;;;;;;;;;;;;
2020/12/25 13:10:04;;;;;;;2.5;1;;;;;;;;;;;;;
2020/12/25 13:12:30;;;;;;;1.3;0.7;;;;;;;;;;;;;
2020/12/25 13:14:55;;;;;;;0.6;0.6;;;;;;;;;;;;;
2020/12/25 13:17:21;;;;;;;1.4;1;;;;;;;;;;;;;
2020/12/25 13:19:46;;;;;;;2.4;0.7;;;;;;;;;;;;;
2020/12/25 13:22:11;;;;;;;1;0.7;;;;;;;;;;;;;
2020/12/25 13:24:36;;;;;;;1.1;0.7;;;;;;;;;;;;;
2020/12/25 13:27:01;;;;;;;0.6;0.6;;;;;;;;;;;;;
2020/12/25 13:29:26;;;;;;;0.7;0.6;;;;;;;;;;;;;
2020/12/25 13:31:52;;;;;;;2.1;0.6;;;;;;;;;;;;;
2020/12/25 13:34:17;;;;;;;1;0.6;;;;;;;;;;;;;
2020/12/25 13:36:42;;;;;;;1.7;1.2;;;;;;;;;;;;;
2020/12/25 13:39:07;;;;;;;0.8;0.6;;;;;;;;;;;;;
2020/12/25 13:41:32;;;;;;;1.4;0.9;;;;;;;;;;;;;
2020/12/25 13:43:59;;;;;;;0.5;0.5;;;;;;;;;;;;;
2020/12/25 13:46:22;;;;;;;1.4;0.7;;;;;;;;;;;;;
2020/12/25 13:48:47;;;;;;;1;0.8;;;;;;;;;;;;;
2020/12/25 13:51:13;;;;;;;2.2;0.8;;;;;;;;;;;;;
2020/12/25 13:53:38;;;;;;;1.1;0.7;;;;;;;;;;;;;
2020/12/25 13:56:03;;;;;;;0.4;0.4;;;;;;;;;;;;;
2020/12/25 13:58:28;;;;;;;0.5;0.5;;;;;;;;;;;;;
2020/12/25 14:00:53;;;;;;;0.4;0.4;;;;;;;;;;;;;
2020/12/25 14:03:18;;;;;;;0.8;0.7;;;;;;;;;;;;;
2020/12/25 14:05:43;;;;;;;0.6;0.6;;;;;;;;;;;;;
2020/12/25 14:08:09;;;;;;;0.5;0.5;;;;;;;;;;;;;
2020/12/25 14:10:34;;;;;;;0.7;0.6;;;;;;;;;;;;;
2020/12/25 14:12:59;;;;;;;0.3;0.3;;;;;;;;;;;;;
2020/12/25 14:15:24;;;;;;;1.8;0.8;;;;;;;;;;;;;
2020/12/25 14:17:50;;;;;;;1.6;0.6;;;;;;;;;;;;;
2020/12/25 14:20:15;;;;;;;1.2;0.7;;;;;;;;;;;;;
2020/12/25 14:22:40;;;;;;;1.5;1.1;;;;;;;;;;;;;
2020/12/25 14:25:08;;;;;;;1.6;0.9;;;;;;;;;;;;;
2020/12/25 14:27:32;;;;;;;1;0.6;;;;;;;;;;;;;
2020/12/25 14:29:58;;;;;;;0.6;0.5;;;;;;;;;;;;;
2020/12/25 14:32:23;;;;;;;1.5;0.4;;;;;;;;;;;;;
2020/12/25 14:34:49;;;;;;;0.3;0.3;;;;;;;;;;;;;
2020/12/25 14:37:14;;;;;;;0.3;0.3;;;;;;;;;;;;;
2020/12/25 14:39:39;;;;;;;0.5;0.5;;;;;;;;;;;;;
2020/12/25 14:42:04;;;;;;;0.4;0.4;;;;;;;;;;;;;
2020/12/25 14:44:29;;;;;;;0.7;0.5;;;;;;;;;;;;;
2020/12/25 14:46:55;;;;;;;1.5;0.5;;;;;;;;;;;;;
2020/12/25 14:49:20;;;;;;;0.8;0.5;;;;;;;;;;;;;
2020/12/25 14:51:45;;;;;;;1;0.5;;;;;;;;;;;;;
2020/12/25 14:54:13;;;;;;;2.2;0.8;;;;;;;;;;;;;
2020/12/25 14:56:35;;;;;;;1.3;1.1;;;;;;;;;;;;;
2020/12/25 14:59:00;;;;;;;2.2;0.8;;;;;;;;;;;;;
2020/12/25 15:01:25;;;;;;;0.2;0.2;;;;;;;;;;;;;
2020/12/25 15:03:51;;;;;;;1.3;0.8;;;;;;;;;;;;;
2020/12/25 15:06:19;;;;;;;1.5;1.2;;;;;;;;;;;;;
2020/12/25 15:08:44;;;;;;;1.1;0.7;;;;;;;;;;;;;
2020/12/25 15:11:07;;;;;;;1.6;1;;;;;;;;;;;;;
2020/12/25 15:13:33;;;;;;;0.8;0.8;;;;;;;;;;;;;
2020/12/25 15:15:58;;;;;;;0.7;0.6;;;;;;;;;;;;;
2020/12/25 15:18:23;;;;;;;0.8;0.8;;;;;;;;;;;;;
2020/12/25 15:20:51;;;;;;;0.6;0.6;;;;;;;;;;;;;
2020/12/25 15:23:13;;;;;;;2.4;1.4;;;;;;;;;;;;;
2020/12/25 15:25:38;;;;;;;0.6;0.6;;;;;;;;;;;;;
2020/12/25 15:28:03;;;;;;;0.9;0.8;;;;;;;;;;;;;
2020/12/25 15:30:30;;;;;;;1.3;1;;;;;;;;;;;;;
2020/12/25 15:32:56;;;;;;;2.4;0.9;;;;;;;;;;;;;
2020/12/25 15:35:20;;;;;;;1.5;1;;;;;;;;;;;;;
2020/12/25 15:37:46;;;;;;;1.9;1.2;;;;;;;;;;;;;
2020/12/25 15:40:11;;;;;;;1.5;1.1;;;;;;;;;;;;;
2020/12/25 15:42:36;;;;;;;1.8;1.3;;;;;;;;;;;;;
2020/12/25 15:45:01;;;;;;;1.8;0.9;;;;;;;;;;;;;
2020/12/25 15:47:28;;;;;;;3.1;1.9;;;;;;;;;;;;;
2020/12/25 15:49:53;;;;;;;1.9;1.4;;;;;;;;;;;;;
2020/12/25 15:52:19;;;;;;;3.5;1.5;;;;;;;;;;;;;
2020/12/25 15:54:43;;;;;;;2.9;1.4;;;;;;;;;;;;;
2020/12/25 15:57:09;;;;;;;3.6;1.6;;;;;;;;;;;;;
2020/12/25 15:59:34;;;;;;;1.2;1;;;;;;;;;;;;;
2020/12/25 16:01:59;;;;;;;2.3;1.9;;;;;;;;;;;;;
2020/12/25 16:04:24;;;;;;;3.3;1.6;;;;;;;;;;;;;
2020/12/25 16:06:49;;;;;;;2;1.2;;;;;;;;;;;;;
2020/12/25 16:09:15;;;;;;;2.8;1.6;;;;;;;;;;;;;
2020/12/25 16:11:40;;;;;;;1.8;1.4;;;;;;;;;;;;;
2020/12/25 16:14:07;;;;;;;2.4;1.5;;;;;;;;;;;;;
2020/12/25 16:16:32;;;;;;;10;4.5;;;;;;;;;;;;;
2020/12/25 16:18:58;;;;;;;1.4;1.1;;;;;;;;;;;;;
2020/12/25 16:21:23;;;;;;;1.8;1.3;;;;;;;;;;;;;
2020/12/25 16:23:48;;;;;;;1.6;1.2;;;;;;;;;;;;;
2020/12/25 16:26:13;;;;;;;1.4;1;;;;;;;;;;;;;
2020/12/25 16:28:38;;;;;;;2.3;1.3;;;;;;;;;;;;;
2020/12/25 16:31:03;;;;;;;3.1;2.1;;;;;;;;;;;;;
2020/12/25 16:33:28;;;;;;;2;1;;;;;;;;;;;;;
2020/12/25 16:35:54;;;;;;;4.1;2.4;;;;;;;;;;;;;
2020/12/25 16:38:19;;;;;;;2.1;1.6;;;;;;;;;;;;;
2020/12/25 16:40:46;;;;;;;3.2;1.8;;;;;;;;;;;;;
2020/12/25 16:43:12;;;;;;;2.7;2.1;;;;;;;;;;;;;
2020/12/25 16:45:37;;;;;;;7.6;2.8;;;;;;;;;;;;;
2020/12/25 16:48:02;;;;;;;4.7;2.3;;;;;;;;;;;;;
2020/12/25 16:50:30;;;;;;;4.3;2.1;;;;;;;;;;;;;
2020/12/25 16:52:55;;;;;;;6;3.5;;;;;;;;;;;;;
2020/12/25 16:55:20;;;;;;;4.2;2.3;;;;;;;;;;;;;
2020/12/25 16:57:46;;;;;;;3.5;1.7;;;;;;;;;;;;;
2020/12/25 17:00:14;;;;;;;1.7;1.3;;;;;;;;;;;;;
2020/12/25 17:02:39;;;;;;;1.9;1.3;;;;;;;;;;;;;
2020/12/25 17:05:09;;;;;;;1.9;1.2;;;;;;;;;;;;;
2020/12/25 17:07:29;;;;;;;1.3;1.2;;;;;;;;;;;;;
2020/12/25 17:09:55;;;;;;;2.5;1.4;;;;;;;;;;;;;
2020/12/25 17:12:20;;;;;;;2.2;1.2;;;;;;;;;;;;;
2020/12/25 17:14:47;;;;;;;1.4;1.2;;;;;;;;;;;;;
2020/12/25 17:17:13;;;;;;;2;1.5;;;;;;;;;;;;;
2020/12/25 17:19:39;;;;;;;1.6;1.2;;;;;;;;;;;;;
2020/12/25 17:22:04;;;;;;;1.4;1;;;;;;;;;;;;;
2020/12/25 17:24:28;;;;;;;1.2;1.1;;;;;;;;;;;;;
2020/12/25 17:26:53;;;;;;;5.7;1.7;;;;;;;;;;;;;
2020/12/25 17:29:19;;;;;;;1.4;1.2;;;;;;;;;;;;;
2020/12/25 17:31:44;;;;;;;1.3;1.2;;;;;;;;;;;;;
2020/12/25 17:34:10;;;;;;;2.4;1.6;;;;;;;;;;;;;
2020/12/25 17:36:35;;;;;;;2.5;1.3;;;;;;;;;;;;;
2020/12/25 17:39:01;;;;;;;1.2;1.1;;;;;;;;;;;;;
2020/12/25 17:41:26;;;;;;;3.2;1.7;;;;;;;;;;;;;
2020/12/25 17:43:52;;;;;;;1.2;1.1;;;;;;;;;;;;;
2020/12/25 17:46:17;;;;;;;1.3;1.2;;;;;;;;;;;;;
2020/12/25 17:48:44;;;;;;;2;1.6;;;;;;;;;;;;;
2020/12/25 17:51:09;;;;;;;2.7;1.6;;;;;;;;;;;;;
2020/12/25 17:53:36;;;;;;;1.2;1;;;;;;;;;;;;;
2020/12/25 17:55:59;;;;;;;2;1.3;;;;;;;;;;;;;
2020/12/25 17:58:24;;;;;;;2.1;1.2;;;;;;;;;;;;;
2020/12/25 18:00:50;;;;;;;1.8;1;;;;;;;;;;;;;
2020/12/25 18:03:15;;;;;;;2;1.5;;;;;;;;;;;;;
2020/12/25 18:05:40;;;;;;;1;0.7;;;;;;;;;;;;;
2020/12/25 18:08:05;;;;;;;0.9;0.8;;;;;;;;;;;;;
2020/12/25 18:10:30;;;;;;;1.4;1.2;;;;;;;;;;;;;
2020/12/25 18:12:56;;;;;;;2.1;1.4;;;;;;;;;;;;;
2020/12/25 18:15:21;;;;;;;2.1;1.2;;;;;;;;;;;;;
2020/12/25 18:17:47;;;;;;;3.6;1.5;;;;;;;;;;;;;
2020/12/25 18:20:12;;;;;;;2.7;1.5;;;;;;;;;;;;;
2020/12/25 18:22:38;;;;;;;1.6;1.1;;;;;;;;;;;;;
2020/12/25 18:25:03;;;;;;;1.4;1;;;;;;;;;;;;;
2020/12/25 18:27:29;;;;;;;1.4;1.1;;;;;;;;;;;;;
2020/12/25 18:29:53;;;;;;;2.1;1.7;;;;;;;;;;;;;
2020/12/25 18:32:18;;;;;;;1;0.9;;;;;;;;;;;;;
2020/12/25 18:34:44;;;;;;;0.7;0.7;;;;;;;;;;;;;
2020/12/25 18:37:10;;;;;;;0.9;0.7;;;;;;;;;;;;;
2020/12/25 18:39:35;;;;;;;1.1;1;;;;;;;;;;;;;
2020/12/25 18:42:14;;;;;;;1.1;0.9;;;;;;;;;;;;;
2020/12/25 18:44:32;;;;;;;1.1;1;;;;;;;;;;;;;
2020/12/25 18:46:56;;;;;;;2.7;1.1;;;;;;;;;;;;;
2020/12/25 18:49:21;;;;;;;1.1;0.9;;;;;;;;;;;;;
2020/12/25 18:51:47;;;;;;;1.7;1;;;;;;;;;;;;;
2020/12/25 18:54:13;;;;;;;2.1;1;;;;;;;;;;;;;
2020/12/25 18:56:37;;;;;;;0.6;0.6;;;;;;;;;;;;;
2020/12/25 18:59:02;;;;;;;1.3;0.8;;;;;;;;;;;;;
2020/12/25 19:01:28;;;;;;;0.8;0.7;;;;;;;;;;;;;
2020/12/25 19:03:54;;;;;;;0.5;0.5;;;;;;;;;;;;;
2020/12/25 19:06:19;;;;;;;1.4;1;;;;;;;;;;;;;
2020/12/25 19:08:54;;;;;;;0.9;0.5;;;;;;;;;;;;;
2020/12/25 19:11:14;;;;;;;0.3;0.3;;;;;;;;;;;;;
2020/12/25 19:13:40;;;;;;;0.4;0.4;;;;;;;;;;;;;
2020/12/25 19:16:05;;;;;;;0.5;0.5;;;;;;;;;;;;;
2020/12/25 19:18:31;;;;;;;0.3;0.3;;;;;;;;;;;;;
2020/12/25 19:20:57;;;;;;;1.3;1.2;;;;;;;;;;;;;
2020/12/25 19:23:23;;;;;;;1.3;0.9;;;;;;;;;;;;;
2020/12/25 19:25:48;;;;;;;1.5;0.5;;;;;;;;;;;;;
2020/12/25 19:28:15;;;;;;;0.4;0.4;;;;;;;;;;;;;
2020/12/25 19:30:40;;;;;;;0.2;0.2;;;;;;;;;;;;;
2020/12/25 19:33:10;;;;;;;0.4;0.4;;;;;;;;;;;;;
2020/12/25 19:35:34;;;;;;;0.4;0.4;;;;;;;;;;;;;
2020/12/25 19:37:59;;;;;;;0.4;0.4;;;;;;;;;;;;;
2020/12/25 19:40:24;;;;;;;0.4;0.4;;;;;;;;;;;;;
2020/12/25 19:42:49;;;;;;;1.1;0.5;;;;;;;;;;;;;